sensor_id;sensor_type;location;lat;lon;timestamp;P1;durP1;ratioP1;P2;durP2;ratioP2
35488;SDS011;21602;55.670;37.578;2023-01-15T00:01:36;14.68;;;6.13;;
35488;SDS011;21602;55.670;37.578;2023-01-15T00:04:03;14.23;;;6.78;;
35488;SDS011;21602;55.670;37.578;2023-01-15T00:08:57;10.85;;;6.28;;
35488;SDS011;21602;55.670;37.578;2023-01-15T00:11:23;12.38;;;5.75;;
35488;SDS011;21602;55.670;37.578;2023-01-15T00:13:49;10.32;;;6.45;;
35488;SDS011;21602;55.670;37.578;2023-01-15T00:16:19;14.65;;;7.07;;
35488;SDS011;21602;55.670;37.578;2023-01-15T00:18:54;10.20;;;5.85;;
35488;SDS011;21602;55.670;37.578;2023-01-15T00:21:21;14.07;;;6.03;;
35488;SDS011;21602;55.670;37.578;2023-01-15T00:23:47;11.57;;;5.88;;
35488;SDS011;21602;55.670;37.578;2023-01-15T00:26:32;10.98;;;6.60;;
35488;SDS011;21602;55.670;37.578;2023-01-15T00:29:22;9.55;;;5.57;;
35488;SDS011;21602;55.670;37.578;2023-01-15T00:31:59;11.93;;;5.90;;
35488;SDS011;21602;55.670;37.578;2023-01-15T00:34:29;10.02;;;5.72;;
35488;SDS011;21602;55.670;37.578;2023-01-15T00:36:55;14.23;;;6.53;;
35488;SDS011;21602;55.670;37.578;2023-01-15T00:39:21;12.07;;;5.53;;
35488;SDS011;21602;55.670;37.578;2023-01-15T00:41:51;13.85;;;6.18;;
35488;SDS011;21602;55.670;37.578;2023-01-15T00:44:17;8.60;;;4.47;;
35488;SDS011;21602;55.670;37.578;2023-01-15T00:46:58;11.98;;;6.20;;
35488;SDS011;21602;55.670;37.578;2023-01-15T00:49:23;12.55;;;6.70;;
35488;SDS011;21602;55.670;37.578;2023-01-15T00:51:50;10.60;;;5.90;;
35488;SDS011;21602;55.670;37.578;2023-01-15T00:54:16;14.30;;;6.88;;
35488;SDS011;21602;55.670;37.578;2023-01-15T00:56:41;11.00;;;6.30;;
35488;SDS011;21602;55.670;37.578;2023-01-15T00:59:07;12.80;;;5.60;;
35488;SDS011;21602;55.670;37.578;2023-01-15T01:01:33;11.93;;;6.20;;
35488;SDS011;21602;55.670;37.578;2023-01-15T01:03:59;12.93;;;6.90;;
35488;SDS011;21602;55.670;37.578;2023-01-15T01:06:25;14.57;;;6.20;;
35488;SDS011;21602;55.670;37.578;2023-01-15T01:08:51;10.80;;;5.97;;
35488;SDS011;21602;55.670;37.578;2023-01-15T01:11:18;12.93;;;6.13;;
35488;SDS011;21602;55.670;37.578;2023-01-15T01:13:48;14.77;;;6.25;;
35488;SDS011;21602;55.670;37.578;2023-01-15T01:18:58;10.45;;;5.18;;
35488;SDS011;21602;55.670;37.578;2023-01-15T01:21:26;10.90;;;5.90;;
35488;SDS011;21602;55.670;37.578;2023-01-15T01:23:52;10.25;;;6.13;;
35488;SDS011;21602;55.670;37.578;2023-01-15T01:26:18;15.40;;;5.97;;
35488;SDS011;21602;55.670;37.578;2023-01-15T01:28:47;13.95;;;6.05;;
35488;SDS011;21602;55.670;37.578;2023-01-15T01:31:16;14.25;;;6.18;;
35488;SDS011;21602;55.670;37.578;2023-01-15T01:33:42;16.80;;;7.53;;
35488;SDS011;21602;55.670;37.578;2023-01-15T01:36:08;10.98;;;7.22;;
35488;SDS011;21602;55.670;37.578;2023-01-15T01:38:33;12.75;;;6.55;;
35488;SDS011;21602;55.670;37.578;2023-01-15T01:40:59;13.85;;;6.75;;
35488;SDS011;21602;55.670;37.578;2023-01-15T01:43:26;15.35;;;7.38;;
35488;SDS011;21602;55.670;37.578;2023-01-15T01:45:56;10.07;;;5.05;;
35488;SDS011;21602;55.670;37.578;2023-01-15T01:48:25;14.70;;;6.75;;
35488;SDS011;21602;55.670;37.578;2023-01-15T01:50:56;19.35;;;6.22;;
35488;SDS011;21602;55.670;37.578;2023-01-15T01:53:27;16.85;;;6.60;;
35488;SDS011;21602;55.670;37.578;2023-01-15T01:55:58;15.25;;;6.40;;
35488;SDS011;21602;55.670;37.578;2023-01-15T01:58:25;10.40;;;6.25;;
35488;SDS011;21602;55.670;37.578;2023-01-15T02:00:55;14.43;;;6.57;;
35488;SDS011;21602;55.670;37.578;2023-01-15T02:03:22;9.93;;;6.18;;
35488;SDS011;21602;55.670;37.578;2023-01-15T02:05:53;14.88;;;7.03;;
35488;SDS011;21602;55.670;37.578;2023-01-15T02:08:21;13.77;;;7.05;;
35488;SDS011;21602;55.670;37.578;2023-01-15T02:10:49;13.98;;;7.25;;
35488;SDS011;21602;55.670;37.578;2023-01-15T02:13:26;12.45;;;6.22;;
35488;SDS011;21602;55.670;37.578;2023-01-15T02:16:00;13.23;;;6.72;;
35488;SDS011;21602;55.670;37.578;2023-01-15T02:21:15;13.45;;;6.07;;
35488;SDS011;21602;55.670;37.578;2023-01-15T02:29:07;12.90;;;6.18;;
35488;SDS011;21602;55.670;37.578;2023-01-15T02:31:42;11.02;;;6.68;;
35488;SDS011;21602;55.670;37.578;2023-01-15T02:34:16;14.13;;;7.25;;
35488;SDS011;21602;55.670;37.578;2023-01-15T02:36:50;13.05;;;5.95;;
35488;SDS011;21602;55.670;37.578;2023-01-15T02:39:24;17.10;;;6.43;;
35488;SDS011;21602;55.670;37.578;2023-01-15T02:41:54;14.63;;;6.88;;
35488;SDS011;21602;55.670;37.578;2023-01-15T02:44:29;12.23;;;6.93;;
35488;SDS011;21602;55.670;37.578;2023-01-15T02:46:59;13.95;;;6.25;;
35488;SDS011;21602;55.670;37.578;2023-01-15T02:49:27;15.98;;;8.18;;
35488;SDS011;21602;55.670;37.578;2023-01-15T02:51:59;15.65;;;7.32;;
35488;SDS011;21602;55.670;37.578;2023-01-15T02:54:36;15.20;;;6.43;;
35488;SDS011;21602;55.670;37.578;2023-01-15T02:57:12;13.70;;;6.60;;
35488;SDS011;21602;55.670;37.578;2023-01-15T02:59:45;15.90;;;7.18;;
35488;SDS011;21602;55.670;37.578;2023-01-15T03:02:18;13.50;;;7.45;;
35488;SDS011;21602;55.670;37.578;2023-01-15T03:05:21;15.95;;;7.22;;
35488;SDS011;21602;55.670;37.578;2023-01-15T03:07:50;16.30;;;6.57;;
35488;SDS011;21602;55.670;37.578;2023-01-15T03:10:21;18.05;;;6.68;;
35488;SDS011;21602;55.670;37.578;2023-01-15T03:12:56;16.55;;;6.65;;
35488;SDS011;21602;55.670;37.578;2023-01-15T03:18:51;15.15;;;5.50;;
35488;SDS011;21602;55.670;37.578;2023-01-15T03:21:21;17.35;;;8.20;;
35488;SDS011;21602;55.670;37.578;2023-01-15T03:24:10;21.33;;;7.13;;
35488;SDS011;21602;55.670;37.578;2023-01-15T03:26:39;14.00;;;6.72;;
35488;SDS011;21602;55.670;37.578;2023-01-15T03:29:07;15.25;;;6.88;;
35488;SDS011;21602;55.670;37.578;2023-01-15T03:31:35;11.63;;;6.68;;
35488;SDS011;21602;55.670;37.578;2023-01-15T03:34:02;19.83;;;6.95;;
35488;SDS011;21602;55.670;37.578;2023-01-15T03:36:28;19.05;;;7.75;;
35488;SDS011;21602;55.670;37.578;2023-01-15T03:38:59;23.60;;;7.75;;
35488;SDS011;21602;55.670;37.578;2023-01-15T03:52:52;13.95;;;7.32;;
35488;SDS011;21602;55.670;37.578;2023-01-15T03:56:06;11.15;;;6.63;;
35488;SDS011;21602;55.670;37.578;2023-01-15T03:58:23;12.95;;;7.15;;
35488;SDS011;21602;55.670;37.578;2023-01-15T04:00:54;22.63;;;7.57;;
35488;SDS011;21602;55.670;37.578;2023-01-15T04:03:24;22.85;;;7.07;;
35488;SDS011;21602;55.670;37.578;2023-01-15T04:05:53;18.45;;;7.00;;
35488;SDS011;21602;55.670;37.578;2023-01-15T04:08:23;19.35;;;8.15;;
35488;SDS011;21602;55.670;37.578;2023-01-15T04:10:54;16.95;;;7.68;;
35488;SDS011;21602;55.670;37.578;2023-01-15T04:13:24;13.57;;;6.75;;
35488;SDS011;21602;55.670;37.578;2023-01-15T04:15:52;17.37;;;7.97;;
35488;SDS011;21602;55.670;37.578;2023-01-15T04:18:18;15.98;;;7.53;;
35488;SDS011;21602;55.670;37.578;2023-01-15T04:20:45;17.27;;;8.10;;
35488;SDS011;21602;55.670;37.578;2023-01-15T04:23:12;24.38;;;8.82;;
35488;SDS011;21602;55.670;37.578;2023-01-15T04:25:39;24.90;;;9.55;;
35488;SDS011;21602;55.670;37.578;2023-01-15T04:28:05;21.13;;;6.85;;
35488;SDS011;21602;55.670;37.578;2023-01-15T04:30:32;17.45;;;6.70;;
35488;SDS011;21602;55.670;37.578;2023-01-15T04:32:58;19.17;;;7.22;;
35488;SDS011;21602;55.670;37.578;2023-01-15T04:35:24;18.40;;;7.07;;
35488;SDS011;21602;55.670;37.578;2023-01-15T04:37:54;18.33;;;7.38;;
35488;SDS011;21602;55.670;37.578;2023-01-15T04:40:23;15.68;;;7.10;;
35488;SDS011;21602;55.670;37.578;2023-01-15T04:43:11;19.80;;;7.80;;
35488;SDS011;21602;55.670;37.578;2023-01-15T04:45:57;16.23;;;6.45;;
35488;SDS011;21602;55.670;37.578;2023-01-15T04:48:24;17.20;;;6.47;;
35488;SDS011;21602;55.670;37.578;2023-01-15T04:50:50;18.27;;;7.50;;
35488;SDS011;21602;55.670;37.578;2023-01-15T04:53:16;14.45;;;6.57;;
35488;SDS011;21602;55.670;37.578;2023-01-15T04:55:42;16.98;;;6.57;;
35488;SDS011;21602;55.670;37.578;2023-01-15T04:58:08;19.40;;;7.80;;
35488;SDS011;21602;55.670;37.578;2023-01-15T05:00:34;19.08;;;7.43;;
35488;SDS011;21602;55.670;37.578;2023-01-15T05:03:00;17.58;;;7.93;;
35488;SDS011;21602;55.670;37.578;2023-01-15T05:05:25;20.17;;;7.70;;
35488;SDS011;21602;55.670;37.578;2023-01-15T05:07:52;22.08;;;8.32;;
35488;SDS011;21602;55.670;37.578;2023-01-15T05:10:17;12.10;;;7.72;;
35488;SDS011;21602;55.670;37.578;2023-01-15T05:12:43;17.55;;;7.28;;
35488;SDS011;21602;55.670;37.578;2023-01-15T05:15:09;22.25;;;8.48;;
35488;SDS011;21602;55.670;37.578;2023-01-15T05:17:35;22.90;;;7.68;;
35488;SDS011;21602;55.670;37.578;2023-01-15T05:20:02;17.85;;;7.47;;
35488;SDS011;21602;55.670;37.578;2023-01-15T05:22:28;20.15;;;7.53;;
35488;SDS011;21602;55.670;37.578;2023-01-15T05:24:54;20.88;;;8.25;;
35488;SDS011;21602;55.670;37.578;2023-01-15T05:27:19;17.80;;;8.25;;
35488;SDS011;21602;55.670;37.578;2023-01-15T05:29:45;18.55;;;8.15;;
35488;SDS011;21602;55.670;37.578;2023-01-15T05:32:12;25.52;;;8.85;;
35488;SDS011;21602;55.670;37.578;2023-01-15T05:34:37;16.38;;;7.55;;
35488;SDS011;21602;55.670;37.578;2023-01-15T05:37:03;18.67;;;7.40;;
35488;SDS011;21602;55.670;37.578;2023-01-15T05:39:30;13.23;;;6.38;;
35488;SDS011;21602;55.670;37.578;2023-01-15T05:41:55;23.77;;;10.10;;
35488;SDS011;21602;55.670;37.578;2023-01-15T05:44:22;30.20;;;8.63;;
35488;SDS011;21602;55.670;37.578;2023-01-15T05:46:53;19.95;;;8.38;;
35488;SDS011;21602;55.670;37.578;2023-01-15T05:49:24;17.00;;;6.32;;
35488;SDS011;21602;55.670;37.578;2023-01-15T05:51:51;21.30;;;7.63;;
35488;SDS011;21602;55.670;37.578;2023-01-15T05:54:19;21.83;;;8.45;;
35488;SDS011;21602;55.670;37.578;2023-01-15T05:56:50;14.18;;;7.00;;
35488;SDS011;21602;55.670;37.578;2023-01-15T05:59:18;19.40;;;8.00;;
35488;SDS011;21602;55.670;37.578;2023-01-15T06:04:12;20.08;;;6.90;;
35488;SDS011;21602;55.670;37.578;2023-01-15T06:06:38;27.80;;;9.82;;
35488;SDS011;21602;55.670;37.578;2023-01-15T06:09:06;26.92;;;8.30;;
35488;SDS011;21602;55.670;37.578;2023-01-15T06:11:32;24.10;;;8.27;;
35488;SDS011;21602;55.670;37.578;2023-01-15T06:13:58;27.48;;;9.65;;
35488;SDS011;21602;55.670;37.578;2023-01-15T06:16:24;21.33;;;7.82;;
35488;SDS011;21602;55.670;37.578;2023-01-15T06:18:50;19.40;;;6.88;;
35488;SDS011;21602;55.670;37.578;2023-01-15T06:21:16;25.20;;;10.18;;
35488;SDS011;21602;55.670;37.578;2023-01-15T06:23:42;20.05;;;8.02;;
35488;SDS011;21602;55.670;37.578;2023-01-15T06:26:14;18.67;;;7.72;;
35488;SDS011;21602;55.670;37.578;2023-01-15T06:28:42;18.67;;;7.70;;
35488;SDS011;21602;55.670;37.578;2023-01-15T06:31:09;19.27;;;8.48;;
35488;SDS011;21602;55.670;37.578;2023-01-15T06:33:36;16.23;;;6.88;;
35488;SDS011;21602;55.670;37.578;2023-01-15T06:36:03;25.00;;;8.98;;
35488;SDS011;21602;55.670;37.578;2023-01-15T06:38:38;25.05;;;7.50;;
35488;SDS011;21602;55.670;37.578;2023-01-15T06:41:05;25.00;;;7.70;;
35488;SDS011;21602;55.670;37.578;2023-01-15T06:43:52;26.73;;;8.10;;
35488;SDS011;21602;55.670;37.578;2023-01-15T06:46:39;23.65;;;9.18;;
35488;SDS011;21602;55.670;37.578;2023-01-15T06:49:27;18.70;;;8.25;;
35488;SDS011;21602;55.670;37.578;2023-01-15T06:51:53;28.65;;;8.82;;
35488;SDS011;21602;55.670;37.578;2023-01-15T06:54:18;19.17;;;7.68;;
35488;SDS011;21602;55.670;37.578;2023-01-15T06:56:44;21.25;;;8.45;;
35488;SDS011;21602;55.670;37.578;2023-01-15T06:59:10;16.20;;;8.95;;
35488;SDS011;21602;55.670;37.578;2023-01-15T07:01:36;22.65;;;8.25;;
35488;SDS011;21602;55.670;37.578;2023-01-15T07:04:02;20.50;;;8.07;;
35488;SDS011;21602;55.670;37.578;2023-01-15T07:06:28;27.50;;;8.02;;
35488;SDS011;21602;55.670;37.578;2023-01-15T07:08:53;26.70;;;9.57;;
35488;SDS011;21602;55.670;37.578;2023-01-15T07:11:19;25.00;;;10.20;;
35488;SDS011;21602;55.670;37.578;2023-01-15T07:13:45;27.63;;;8.30;;
35488;SDS011;21602;55.670;37.578;2023-01-15T07:16:11;21.55;;;7.75;;
35488;SDS011;21602;55.670;37.578;2023-01-15T07:18:55;23.10;;;8.98;;
35488;SDS011;21602;55.670;37.578;2023-01-15T07:21:21;16.30;;;6.57;;
35488;SDS011;21602;55.670;37.578;2023-01-15T07:26:19;28.08;;;8.23;;
35488;SDS011;21602;55.670;37.578;2023-01-15T07:28:45;23.73;;;8.32;;
35488;SDS011;21602;55.670;37.578;2023-01-15T07:31:11;17.48;;;8.77;;
35488;SDS011;21602;55.670;37.578;2023-01-15T07:33:37;13.82;;;8.00;;
35488;SDS011;21602;55.670;37.578;2023-01-15T07:36:03;18.70;;;8.10;;
35488;SDS011;21602;55.670;37.578;2023-01-15T07:38:29;21.30;;;8.43;;
35488;SDS011;21602;55.670;37.578;2023-01-15T07:40:56;24.20;;;9.48;;
35488;SDS011;21602;55.670;37.578;2023-01-15T07:43:40;13.55;;;7.47;;
35488;SDS011;21602;55.670;37.578;2023-01-15T07:46:24;17.75;;;8.25;;
35488;SDS011;21602;55.670;37.578;2023-01-15T07:49:09;19.90;;;8.10;;
35488;SDS011;21602;55.670;37.578;2023-01-15T07:51:54;16.95;;;8.38;;
35488;SDS011;21602;55.670;37.578;2023-01-15T07:54:20;27.67;;;8.25;;
35488;SDS011;21602;55.670;37.578;2023-01-15T07:56:46;17.40;;;8.80;;
35488;SDS011;21602;55.670;37.578;2023-01-15T07:59:12;24.60;;;8.23;;
35488;SDS011;21602;55.670;37.578;2023-01-15T08:01:38;21.48;;;8.98;;
35488;SDS011;21602;55.670;37.578;2023-01-15T08:04:04;23.42;;;9.13;;
35488;SDS011;21602;55.670;37.578;2023-01-15T08:06:30;18.88;;;7.25;;
35488;SDS011;21602;55.670;37.578;2023-01-15T08:08:56;17.02;;;8.95;;
35488;SDS011;21602;55.670;37.578;2023-01-15T08:11:22;21.30;;;7.95;;
35488;SDS011;21602;55.670;37.578;2023-01-15T08:14:07;18.92;;;7.90;;
35488;SDS011;21602;55.670;37.578;2023-01-15T08:16:55;21.23;;;9.32;;
35488;SDS011;21602;55.670;37.578;2023-01-15T08:19:21;14.40;;;8.20;;
35488;SDS011;21602;55.670;37.578;2023-01-15T08:21:49;21.83;;;8.63;;
35488;SDS011;21602;55.670;37.578;2023-01-15T08:24:16;19.50;;;8.55;;
35488;SDS011;21602;55.670;37.578;2023-01-15T08:26:46;19.00;;;9.55;;
35488;SDS011;21602;55.670;37.578;2023-01-15T08:29:12;21.23;;;8.20;;
35488;SDS011;21602;55.670;37.578;2023-01-15T08:31:38;18.75;;;8.07;;
35488;SDS011;21602;55.670;37.578;2023-01-15T08:34:06;18.80;;;8.32;;
35488;SDS011;21602;55.670;37.578;2023-01-15T08:36:35;22.40;;;8.68;;
35488;SDS011;21602;55.670;37.578;2023-01-15T08:39:01;16.95;;;8.48;;
35488;SDS011;21602;55.670;37.578;2023-01-15T08:41:31;20.83;;;8.23;;
35488;SDS011;21602;55.670;37.578;2023-01-15T08:43:57;19.15;;;8.82;;
35488;SDS011;21602;55.670;37.578;2023-01-15T08:46:24;14.70;;;8.05;;
35488;SDS011;21602;55.670;37.578;2023-01-15T08:48:50;16.95;;;7.85;;
35488;SDS011;21602;55.670;37.578;2023-01-15T08:51:23;14.88;;;8.25;;
35488;SDS011;21602;55.670;37.578;2023-01-15T08:53:58;15.57;;;8.20;;
35488;SDS011;21602;55.670;37.578;2023-01-15T08:56:36;24.60;;;8.25;;
35488;SDS011;21602;55.670;37.578;2023-01-15T08:59:06;19.08;;;7.80;;
35488;SDS011;21602;55.670;37.578;2023-01-15T09:01:33;15.18;;;7.38;;
35488;SDS011;21602;55.670;37.578;2023-01-15T09:03:59;17.65;;;8.02;;
35488;SDS011;21602;55.670;37.578;2023-01-15T09:06:25;17.42;;;7.50;;
35488;SDS011;21602;55.670;37.578;2023-01-15T09:08:57;20.10;;;8.73;;
35488;SDS011;21602;55.670;37.578;2023-01-15T09:11:26;17.83;;;7.47;;
35488;SDS011;21602;55.670;37.578;2023-01-15T09:13:53;22.60;;;9.02;;
35488;SDS011;21602;55.670;37.578;2023-01-15T09:16:19;18.38;;;8.27;;
35488;SDS011;21602;55.670;37.578;2023-01-15T09:18:44;15.40;;;7.65;;
35488;SDS011;21602;55.670;37.578;2023-01-15T09:21:10;13.38;;;7.43;;
35488;SDS011;21602;55.670;37.578;2023-01-15T09:23:36;15.15;;;8.45;;
35488;SDS011;21602;55.670;37.578;2023-01-15T09:26:03;18.13;;;8.00;;
35488;SDS011;21602;55.670;37.578;2023-01-15T09:28:33;19.38;;;7.85;;
35488;SDS011;21602;55.670;37.578;2023-01-15T09:30:59;22.42;;;8.02;;
35488;SDS011;21602;55.670;37.578;2023-01-15T09:33:25;15.73;;;7.95;;
35488;SDS011;21602;55.670;37.578;2023-01-15T09:35:51;15.25;;;7.20;;
35488;SDS011;21602;55.670;37.578;2023-01-15T09:38:18;14.50;;;7.40;;
35488;SDS011;21602;55.670;37.578;2023-01-15T09:40:48;16.58;;;7.45;;
35488;SDS011;21602;55.670;37.578;2023-01-15T09:46:13;17.80;;;8.35;;
35488;SDS011;21602;55.670;37.578;2023-01-15T09:48:52;20.65;;;8.27;;
35488;SDS011;21602;55.670;37.578;2023-01-15T09:57:12;14.75;;;7.07;;
35488;SDS011;21602;55.670;37.578;2023-01-15T09:59:43;18.15;;;7.50;;
35488;SDS011;21602;55.670;37.578;2023-01-15T10:05:01;17.95;;;9.45;;
35488;SDS011;21602;55.670;37.578;2023-01-15T10:10:25;18.38;;;8.18;;
35488;SDS011;21602;55.670;37.578;2023-01-15T10:13:08;18.75;;;6.50;;
35488;SDS011;21602;55.670;37.578;2023-01-15T10:15:57;9.07;;;6.38;;
35488;SDS011;21602;55.670;37.578;2023-01-15T10:18:24;16.60;;;7.07;;
35488;SDS011;21602;55.670;37.578;2023-01-15T10:23:47;13.80;;;6.47;;
35488;SDS011;21602;55.670;37.578;2023-01-15T10:29:14;12.95;;;6.25;;
35488;SDS011;21602;55.670;37.578;2023-01-15T10:40:16;15.27;;;7.35;;
35488;SDS011;21602;55.670;37.578;2023-01-15T10:42:47;14.40;;;6.40;;
35488;SDS011;21602;55.670;37.578;2023-01-15T10:45:22;18.58;;;6.68;;
35488;SDS011;21602;55.670;37.578;2023-01-15T10:50:56;9.30;;;5.40;;
35488;SDS011;21602;55.670;37.578;2023-01-15T10:53:49;12.65;;;5.95;;
35488;SDS011;21602;55.670;37.578;2023-01-15T10:56:25;15.43;;;6.57;;
35488;SDS011;21602;55.670;37.578;2023-01-15T10:58:57;14.95;;;6.75;;
35488;SDS011;21602;55.670;37.578;2023-01-15T11:01:32;14.02;;;5.82;;
35488;SDS011;21602;55.670;37.578;2023-01-15T11:03:59;18.50;;;6.72;;
35488;SDS011;21602;55.670;37.578;2023-01-15T11:06:28;11.10;;;5.50;;
35488;SDS011;21602;55.670;37.578;2023-01-15T11:08:59;12.80;;;5.70;;
35488;SDS011;21602;55.670;37.578;2023-01-15T11:11:28;14.43;;;6.32;;
35488;SDS011;21602;55.670;37.578;2023-01-15T11:20:28;15.45;;;5.78;;
35488;SDS011;21602;55.670;37.578;2023-01-15T11:23:06;12.13;;;5.47;;
35488;SDS011;21602;55.670;37.578;2023-01-15T11:25:34;12.98;;;6.43;;
35488;SDS011;21602;55.670;37.578;2023-01-15T11:28:04;13.23;;;6.07;;
35488;SDS011;21602;55.670;37.578;2023-01-15T11:30:35;12.15;;;5.95;;
35488;SDS011;21602;55.670;37.578;2023-01-15T11:33:15;11.95;;;5.32;;
35488;SDS011;21602;55.670;37.578;2023-01-15T11:35:51;15.13;;;7.47;;
35488;SDS011;21602;55.670;37.578;2023-01-15T11:38:23;13.40;;;5.93;;
35488;SDS011;21602;55.670;37.578;2023-01-15T11:40:54;13.13;;;5.65;;
35488;SDS011;21602;55.670;37.578;2023-01-15T11:43:24;14.18;;;5.57;;
35488;SDS011;21602;55.670;37.578;2023-01-15T11:46:30;13.40;;;5.82;;
35488;SDS011;21602;55.670;37.578;2023-01-15T11:49:19;11.95;;;4.90;;
35488;SDS011;21602;55.670;37.578;2023-01-15T11:52:09;16.15;;;5.43;;
35488;SDS011;21602;55.670;37.578;2023-01-15T11:54:43;11.50;;;5.57;;
35488;SDS011;21602;55.670;37.578;2023-01-15T11:57:21;14.18;;;6.30;;
35488;SDS011;21602;55.670;37.578;2023-01-15T11:59:52;15.60;;;5.50;;
35488;SDS011;21602;55.670;37.578;2023-01-15T12:02:26;23.45;;;6.03;;
35488;SDS011;21602;55.670;37.578;2023-01-15T12:05:01;15.35;;;7.00;;
35488;SDS011;21602;55.670;37.578;2023-01-15T12:07:31;16.02;;;6.22;;
35488;SDS011;21602;55.670;37.578;2023-01-15T12:13:18;11.35;;;5.00;;
35488;SDS011;21602;55.670;37.578;2023-01-15T12:18:53;10.88;;;5.00;;
35488;SDS011;21602;55.670;37.578;2023-01-15T12:21:56;17.85;;;6.85;;
35488;SDS011;21602;55.670;37.578;2023-01-15T12:30:27;16.10;;;4.75;;
35488;SDS011;21602;55.670;37.578;2023-01-15T12:32:59;10.00;;;5.05;;
35488;SDS011;21602;55.670;37.578;2023-01-15T12:35:30;12.70;;;6.43;;
35488;SDS011;21602;55.670;37.578;2023-01-15T12:40:53;11.63;;;5.05;;
35488;SDS011;21602;55.670;37.578;2023-01-15T12:43:25;11.85;;;4.40;;
35488;SDS011;21602;55.670;37.578;2023-01-15T12:46:14;12.23;;;5.45;;
35488;SDS011;21602;55.670;37.578;2023-01-15T12:48:48;9.07;;;4.80;;
35488;SDS011;21602;55.670;37.578;2023-01-15T12:51:31;16.70;;;5.55;;
35488;SDS011;21602;55.670;37.578;2023-01-15T12:54:23;16.25;;;5.85;;
35488;SDS011;21602;55.670;37.578;2023-01-15T12:59:34;17.63;;;5.00;;
35488;SDS011;21602;55.670;37.578;2023-01-15T13:02:20;12.10;;;4.47;;
35488;SDS011;21602;55.670;37.578;2023-01-15T13:07:44;9.38;;;4.07;;
35488;SDS011;21602;55.670;37.578;2023-01-15T13:10:21;12.85;;;4.38;;
35488;SDS011;21602;55.670;37.578;2023-01-15T13:12:54;13.52;;;4.25;;
35488;SDS011;21602;55.670;37.578;2023-01-15T13:15:27;7.20;;;3.50;;
35488;SDS011;21602;55.670;37.578;2023-01-15T13:17:59;10.07;;;4.40;;
35488;SDS011;21602;55.670;37.578;2023-01-15T13:34:27;14.82;;;3.60;;
35488;SDS011;21602;55.670;37.578;2023-01-15T13:36:56;11.15;;;4.30;;
35488;SDS011;21602;55.670;37.578;2023-01-15T13:39:31;10.63;;;3.78;;
35488;SDS011;21602;55.670;37.578;2023-01-15T13:42:20;13.82;;;5.10;;
35488;SDS011;21602;55.670;37.578;2023-01-15T13:45:02;8.13;;;3.83;;
35488;SDS011;21602;55.670;37.578;2023-01-15T13:47:57;10.57;;;3.35;;
35488;SDS011;21602;55.670;37.578;2023-01-15T13:50:29;14.23;;;4.68;;
35488;SDS011;21602;55.670;37.578;2023-01-15T13:55:30;10.07;;;3.67;;
35488;SDS011;21602;55.670;37.578;2023-01-15T13:57:59;7.63;;;3.90;;
35488;SDS011;21602;55.670;37.578;2023-01-15T14:00:31;8.18;;;3.75;;
35488;SDS011;21602;55.670;37.578;2023-01-15T14:03:21;10.33;;;3.80;;
35488;SDS011;21602;55.670;37.578;2023-01-15T14:05:56;14.38;;;4.40;;
35488;SDS011;21602;55.670;37.578;2023-01-15T14:08:26;6.15;;;3.47;;
35488;SDS011;21602;55.670;37.578;2023-01-15T14:11:00;12.80;;;4.55;;
35488;SDS011;21602;55.670;37.578;2023-01-15T14:16:26;8.63;;;4.00;;
35488;SDS011;21602;55.670;37.578;2023-01-15T14:19:27;14.25;;;4.65;;
35488;SDS011;21602;55.670;37.578;2023-01-15T14:30:23;10.63;;;4.75;;
35488;SDS011;21602;55.670;37.578;2023-01-15T14:33:19;7.65;;;4.35;;
35488;SDS011;21602;55.670;37.578;2023-01-15T14:35:54;11.75;;;5.07;;
35488;SDS011;21602;55.670;37.578;2023-01-15T14:38:21;9.20;;;4.55;;
35488;SDS011;21602;55.670;37.578;2023-01-15T14:40:52;8.85;;;4.53;;
35488;SDS011;21602;55.670;37.578;2023-01-15T14:43:24;12.40;;;4.28;;
35488;SDS011;21602;55.670;37.578;2023-01-15T14:45:53;11.60;;;4.70;;
35488;SDS011;21602;55.670;37.578;2023-01-15T14:48:33;11.10;;;4.82;;
35488;SDS011;21602;55.670;37.578;2023-01-15T14:51:09;12.82;;;4.90;;
35488;SDS011;21602;55.670;37.578;2023-01-15T14:56:19;10.70;;;5.55;;
35488;SDS011;21602;55.670;37.578;2023-01-15T14:59:27;10.23;;;5.70;;
35488;SDS011;21602;55.670;37.578;2023-01-15T15:02:14;13.02;;;4.88;;
35488;SDS011;21602;55.670;37.578;2023-01-15T15:07:22;8.85;;;4.05;;
35488;SDS011;21602;55.670;37.578;2023-01-15T15:10:03;9.15;;;4.75;;
35488;SDS011;21602;55.670;37.578;2023-01-15T15:23:16;11.38;;;4.30;;
35488;SDS011;21602;55.670;37.578;2023-01-15T15:25:43;7.78;;;4.55;;
35488;SDS011;21602;55.670;37.578;2023-01-15T15:28:26;12.02;;;4.95;;
35488;SDS011;21602;55.670;37.578;2023-01-15T15:30:55;8.23;;;4.95;;
35488;SDS011;21602;55.670;37.578;2023-01-15T15:33:45;8.95;;;4.32;;
35488;SDS011;21602;55.670;37.578;2023-01-15T15:36:11;8.02;;;4.38;;
35488;SDS011;21602;55.670;37.578;2023-01-15T15:38:39;7.75;;;4.93;;
35488;SDS011;21602;55.670;37.578;2023-01-15T15:41:24;5.78;;;4.13;;
35488;SDS011;21602;55.670;37.578;2023-01-15T15:44:23;7.70;;;4.00;;
35488;SDS011;21602;55.670;37.578;2023-01-15T15:47:38;10.40;;;4.20;;
35488;SDS011;21602;55.670;37.578;2023-01-15T15:50:28;8.98;;;3.63;;
35488;SDS011;21602;55.670;37.578;2023-01-15T15:52:56;12.50;;;5.32;;
35488;SDS011;21602;55.670;37.578;2023-01-15T15:55:25;7.15;;;4.57;;
35488;SDS011;21602;55.670;37.578;2023-01-15T15:58:02;9.77;;;4.15;;
35488;SDS011;21602;55.670;37.578;2023-01-15T16:00:30;7.47;;;4.10;;
35488;SDS011;21602;55.670;37.578;2023-01-15T16:03:04;6.65;;;3.85;;
35488;SDS011;21602;55.670;37.578;2023-01-15T16:05:33;7.95;;;4.13;;
35488;SDS011;21602;55.670;37.578;2023-01-15T16:10:40;7.55;;;3.90;;
35488;SDS011;21602;55.670;37.578;2023-01-15T16:13:06;12.02;;;4.50;;
35488;SDS011;21602;55.670;37.578;2023-01-15T16:15:42;6.32;;;3.47;;
35488;SDS011;21602;55.670;37.578;2023-01-15T16:18:14;7.97;;;4.63;;
35488;SDS011;21602;55.670;37.578;2023-01-15T16:20:47;9.95;;;4.63;;
35488;SDS011;21602;55.670;37.578;2023-01-15T16:23:18;9.73;;;4.50;;
35488;SDS011;21602;55.670;37.578;2023-01-15T16:25:54;6.72;;;4.18;;
35488;SDS011;21602;55.670;37.578;2023-01-15T16:28:27;7.75;;;4.15;;
35488;SDS011;21602;55.670;37.578;2023-01-15T16:31:09;8.88;;;3.85;;
35488;SDS011;21602;55.670;37.578;2023-01-15T16:33:36;7.10;;;3.35;;
35488;SDS011;21602;55.670;37.578;2023-01-15T16:36:03;8.70;;;4.15;;
35488;SDS011;21602;55.670;37.578;2023-01-15T16:41:06;7.95;;;4.20;;
35488;SDS011;21602;55.670;37.578;2023-01-15T16:43:57;10.50;;;5.13;;
35488;SDS011;21602;55.670;37.578;2023-01-15T16:46:32;11.43;;;5.88;;
35488;SDS011;21602;55.670;37.578;2023-01-15T16:51:48;17.05;;;6.20;;
35488;SDS011;21602;55.670;37.578;2023-01-15T17:00:00;9.02;;;6.20;;
35488;SDS011;21602;55.670;37.578;2023-01-15T17:02:42;13.10;;;7.43;;
35488;SDS011;21602;55.670;37.578;2023-01-15T17:05:16;13.18;;;6.95;;
35488;SDS011;21602;55.670;37.578;2023-01-15T17:07:47;15.63;;;6.63;;
35488;SDS011;21602;55.670;37.578;2023-01-15T17:10:25;17.70;;;7.78;;
35488;SDS011;21602;55.670;37.578;2023-01-15T17:12:52;18.80;;;8.70;;
35488;SDS011;21602;55.670;37.578;2023-01-15T17:17:53;14.55;;;8.43;;
35488;SDS011;21602;55.670;37.578;2023-01-15T17:20:29;15.27;;;7.60;;
35488;SDS011;21602;55.670;37.578;2023-01-15T17:23:10;19.92;;;7.82;;